sensor_id;sensor_type;location;lat;lon;timestamp;temperature;humidity
42145;DHT22;27813;43.516;11.890;2024-02-28T00:01:54;9.40;98.70
42145;DHT22;27813;43.516;11.890;2024-02-28T00:06:06;9.40;98.70
42145;DHT22;27813;43.516;11.890;2024-02-28T00:10:34;9.40;98.70
42145;DHT22;27813;43.516;11.890;2024-02-28T00:14:39;9.40;98.70
42145;DHT22;27813;43.516;11.890;2024-02-28T00:18:43;9.50;98.70
42145;DHT22;27813;43.516;11.890;2024-02-28T00:22:50;9.50;98.70
42145;DHT22;27813;43.516;11.890;2024-02-28T00:26:54;9.40;98.70
42145;DHT22;27813;43.516;11.890;2024-02-28T00:30:59;9.50;98.70
42145;DHT22;27813;43.516;11.890;2024-02-28T00:35:04;9.50;98.70
42145;DHT22;27813;43.516;11.890;2024-02-28T00:39:10;9.50;98.60
42145;DHT22;27813;43.516;11.890;2024-02-28T00:43:15;9.40;98.60
42145;DHT22;27813;43.516;11.890;2024-02-28T00:47:20;9.30;98.60
42145;DHT22;27813;43.516;11.890;2024-02-28T00:51:24;9.40;98.70
42145;DHT22;27813;43.516;11.890;2024-02-28T00:55:28;9.40;98.70
42145;DHT22;27813;43.516;11.890;2024-02-28T00:59:34;9.40;98.70
42145;DHT22;27813;43.516;11.890;2024-02-28T01:03:38;9.30;98.70
42145;DHT22;27813;43.516;11.890;2024-02-28T01:07:43;9.30;98.70
42145;DHT22;27813;43.516;11.890;2024-02-28T01:11:48;9.30;98.70
42145;DHT22;27813;43.516;11.890;2024-02-28T01:15:52;9.30;98.70
42145;DHT22;27813;43.516;11.890;2024-02-28T01:19:57;9.20;98.60
42145;DHT22;27813;43.516;11.890;2024-02-28T01:24:01;9.10;98.60
42145;DHT22;27813;43.516;11.890;2024-02-28T01:28:06;9.10;98.50
42145;DHT22;27813;43.516;11.890;2024-02-28T01:32:11;9.10;98.50
42145;DHT22;27813;43.516;11.890;2024-02-28T01:36:17;9.00;98.60
42145;DHT22;27813;43.516;11.890;2024-02-28T01:40:21;9.00;98.60
42145;DHT22;27813;43.516;11.890;2024-02-28T01:44:25;9.00;98.50
42145;DHT22;27813;43.516;11.890;2024-02-28T01:48:30;9.00;98.60
42145;DHT22;27813;43.516;11.890;2024-02-28T01:52:36;9.00;98.70
42145;DHT22;27813;43.516;11.890;2024-02-28T01:56:42;9.10;98.70
42145;DHT22;27813;43.516;11.890;2024-02-28T02:00:48;9.10;98.60
42145;DHT22;27813;43.516;11.890;2024-02-28T02:04:53;9.10;98.60
42145;DHT22;27813;43.516;11.890;2024-02-28T02:08:58;9.10;98.60
42145;DHT22;27813;43.516;11.890;2024-02-28T02:13:06;9.10;98.60
42145;DHT22;27813;43.516;11.890;2024-02-28T02:17:12;9.00;98.50
42145;DHT22;27813;43.516;11.890;2024-02-28T02:21:19;9.00;98.50
42145;DHT22;27813;43.516;11.890;2024-02-28T02:25:26;9.00;98.60
42145;DHT22;27813;43.516;11.890;2024-02-28T02:29:31;9.00;98.70
42145;DHT22;27813;43.516;11.890;2024-02-28T02:33:42;9.00;98.70
42145;DHT22;27813;43.516;11.890;2024-02-28T02:37:51;9.00;98.60
42145;DHT22;27813;43.516;11.890;2024-02-28T02:41:56;9.00;98.60
42145;DHT22;27813;43.516;11.890;2024-02-28T02:46:01;8.90;98.60
42145;DHT22;27813;43.516;11.890;2024-02-28T02:50:06;9.00;98.60
42145;DHT22;27813;43.516;11.890;2024-02-28T02:54:12;9.00;98.70
42145;DHT22;27813;43.516;11.890;2024-02-28T02:58:16;9.00;98.80
42145;DHT22;27813;43.516;11.890;2024-02-28T03:06:22;9.20;99.00
42145;DHT22;27813;43.516;11.890;2024-02-28T03:10:28;9.30;99.00
42145;DHT22;27813;43.516;11.890;2024-02-28T03:14:32;9.20;98.90
42145;DHT22;27813;43.516;11.890;2024-02-28T03:18:37;9.20;98.80
42145;DHT22;27813;43.516;11.890;2024-02-28T03:22:41;9.10;98.80
42145;DHT22;27813;43.516;11.890;2024-02-28T03:26:45;9.20;98.80
42145;DHT22;27813;43.516;11.890;2024-02-28T03:30:50;9.20;98.80
42145;DHT22;27813;43.516;11.890;2024-02-28T03:34:54;9.10;98.80
42145;DHT22;27813;43.516;11.890;2024-02-28T03:38:58;9.10;98.80
42145;DHT22;27813;43.516;11.890;2024-02-28T03:43:03;9.10;98.80
42145;DHT22;27813;43.516;11.890;2024-02-28T03:47:07;9.10;98.80
42145;DHT22;27813;43.516;11.890;2024-02-28T03:51:11;9.10;98.80
42145;DHT22;27813;43.516;11.890;2024-02-28T03:55:16;9.10;98.80
42145;DHT22;27813;43.516;11.890;2024-02-28T03:59:20;9.10;98.80
42145;DHT22;27813;43.516;11.890;2024-02-28T04:03:24;9.10;98.80
42145;DHT22;27813;43.516;11.890;2024-02-28T04:07:28;9.10;98.80
42145;DHT22;27813;43.516;11.890;2024-02-28T04:11:33;9.10;98.80
42145;DHT22;27813;43.516;11.890;2024-02-28T04:15:38;9.10;98.70
42145;DHT22;27813;43.516;11.890;2024-02-28T04:19:42;9.10;98.70
42145;DHT22;27813;43.516;11.890;2024-02-28T04:23:46;9.00;98.70
42145;DHT22;27813;43.516;11.890;2024-02-28T04:27:50;9.00;98.70
42145;DHT22;27813;43.516;11.890;2024-02-28T04:31:55;9.00;98.70
42145;DHT22;27813;43.516;11.890;2024-02-28T04:35:59;9.00;98.70
42145;DHT22;27813;43.516;11.890;2024-02-28T04:40:04;9.00;98.60
42145;DHT22;27813;43.516;11.890;2024-02-28T04:44:10;9.00;98.60
42145;DHT22;27813;43.516;11.890;2024-02-28T04:48:14;8.90;98.60
42145;DHT22;27813;43.516;11.890;2024-02-28T04:52:19;8.90;98.60
42145;DHT22;27813;43.516;11.890;2024-02-28T04:56:26;8.80;98.60
42145;DHT22;27813;43.516;11.890;2024-02-28T05:00:30;8.80;98.60
42145;DHT22;27813;43.516;11.890;2024-02-28T05:04:35;8.80;98.60
42145;DHT22;27813;43.516;11.890;2024-02-28T05:08:39;8.70;98.50
42145;DHT22;27813;43.516;11.890;2024-02-28T05:12:43;8.60;98.50
42145;DHT22;27813;43.516;11.890;2024-02-28T05:16:47;8.60;98.60
42145;DHT22;27813;43.516;11.890;2024-02-28T05:20:52;8.60;98.50
42145;DHT22;27813;43.516;11.890;2024-02-28T05:24:56;8.50;98.50
42145;DHT22;27813;43.516;11.890;2024-02-28T05:29:04;8.40;98.40
42145;DHT22;27813;43.516;11.890;2024-02-28T05:33:09;8.40;98.40
42145;DHT22;27813;43.516;11.890;2024-02-28T05:37:16;8.30;98.40
42145;DHT22;27813;43.516;11.890;2024-02-28T05:41:22;8.30;98.50
42145;DHT22;27813;43.516;11.890;2024-02-28T05:45:26;8.40;98.50
42145;DHT22;27813;43.516;11.890;2024-02-28T05:49:30;8.40;98.50
42145;DHT22;27813;43.516;11.890;2024-02-28T05:53:34;8.40;98.50
42145;DHT22;27813;43.516;11.890;2024-02-28T05:57:42;8.40;98.50
42145;DHT22;27813;43.516;11.890;2024-02-28T06:01:46;8.40;98.60
42145;DHT22;27813;43.516;11.890;2024-02-28T06:05:50;8.40;98.60
42145;DHT22;27813;43.516;11.890;2024-02-28T06:09:56;8.40;98.60
42145;DHT22;27813;43.516;11.890;2024-02-28T06:14:01;8.50;98.60
42145;DHT22;27813;43.516;11.890;2024-02-28T06:18:07;8.50;98.60
42145;DHT22;27813;43.516;11.890;2024-02-28T06:22:11;8.50;98.70
42145;DHT22;27813;43.516;11.890;2024-02-28T06:26:16;8.50;98.70
42145;DHT22;27813;43.516;11.890;2024-02-28T06:30:21;8.50;98.70
42145;DHT22;27813;43.516;11.890;2024-02-28T06:34:25;8.60;98.80
42145;DHT22;27813;43.516;11.890;2024-02-28T06:38:30;8.70;98.80
42145;DHT22;27813;43.516;11.890;2024-02-28T06:42:34;8.80;98.90
42145;DHT22;27813;43.516;11.890;2024-02-28T06:46:40;8.90;99.00
42145;DHT22;27813;43.516;11.890;2024-02-28T06:50:47;9.00;99.00
42145;DHT22;27813;43.516;11.890;2024-02-28T06:54:52;9.20;99.20
42145;DHT22;27813;43.516;11.890;2024-02-28T06:58:56;9.60;99.40
42145;DHT22;27813;43.516;11.890;2024-02-28T07:03:00;9.90;99.40
42145;DHT22;27813;43.516;11.890;2024-02-28T07:07:04;9.90;99.40
42145;DHT22;27813;43.516;11.890;2024-02-28T07:11:15;10.10;99.40
42145;DHT22;27813;43.516;11.890;2024-02-28T07:15:22;10.20;99.50
42145;DHT22;27813;43.516;11.890;2024-02-28T07:19:26;10.30;99.50
42145;DHT22;27813;43.516;11.890;2024-02-28T07:23:31;10.40;99.50
42145;DHT22;27813;43.516;11.890;2024-02-28T07:27:35;10.50;99.50
42145;DHT22;27813;43.516;11.890;2024-02-28T07:31:40;10.60;99.50
42145;DHT22;27813;43.516;11.890;2024-02-28T07:35:49;10.90;99.60
42145;DHT22;27813;43.516;11.890;2024-02-28T07:39:54;11.20;99.70
42145;DHT22;27813;43.516;11.890;2024-02-28T07:43:58;11.60;99.70
42145;DHT22;27813;43.516;11.890;2024-02-28T07:48:02;11.90;99.80
42145;DHT22;27813;43.516;11.890;2024-02-28T07:52:07;12.00;99.70
42145;DHT22;27813;43.516;11.890;2024-02-28T07:56:18;12.20;99.80
42145;DHT22;27813;43.516;11.890;2024-02-28T08:00:23;12.40;99.80
42145;DHT22;27813;43.516;11.890;2024-02-28T08:04:29;12.50;99.80
42145;DHT22;27813;43.516;11.890;2024-02-28T08:08:35;12.80;99.80
42145;DHT22;27813;43.516;11.890;2024-02-28T08:12:40;13.20;99.90
42145;DHT22;27813;43.516;11.890;2024-02-28T08:16:44;13.40;99.90
42145;DHT22;27813;43.516;11.890;2024-02-28T08:20:48;13.50;99.90
42145;DHT22;27813;43.516;11.890;2024-02-28T08:24:54;13.70;99.90
42145;DHT22;27813;43.516;11.890;2024-02-28T08:29:00;13.70;99.90
42145;DHT22;27813;43.516;11.890;2024-02-28T08:33:06;13.60;99.80
42145;DHT22;27813;43.516;11.890;2024-02-28T08:37:14;13.70;99.80
42145;DHT22;27813;43.516;11.890;2024-02-28T08:41:18;13.90;99.90
42145;DHT22;27813;43.516;11.890;2024-02-28T08:45:23;14.00;99.90
42145;DHT22;27813;43.516;11.890;2024-02-28T08:49:27;14.20;99.90
42145;DHT22;27813;43.516;11.890;2024-02-28T08:53:33;14.40;99.90
42145;DHT22;27813;43.516;11.890;2024-02-28T08:57:37;14.40;99.90
42145;DHT22;27813;43.516;11.890;2024-02-28T09:01:42;14.40;99.90
42145;DHT22;27813;43.516;11.890;2024-02-28T09:05:48;14.40;99.80
42145;DHT22;27813;43.516;11.890;2024-02-28T09:09:52;14.40;99.80
42145;DHT22;27813;43.516;11.890;2024-02-28T09:13:59;14.30;99.80
42145;DHT22;27813;43.516;11.890;2024-02-28T09:18:04;14.20;99.70
42145;DHT22;27813;43.516;11.890;2024-02-28T09:22:08;14.30;99.80
42145;DHT22;27813;43.516;11.890;2024-02-28T09:26:13;14.40;99.80
42145;DHT22;27813;43.516;11.890;2024-02-28T09:30:17;14.60;99.80
42145;DHT22;27813;43.516;11.890;2024-02-28T09:34:22;15.00;99.90
42145;DHT22;27813;43.516;11.890;2024-02-28T09:38:26;15.30;99.90
42145;DHT22;27813;43.516;11.890;2024-02-28T09:42:31;15.70;99.90
42145;DHT22;27813;43.516;11.890;2024-02-28T09:46:36;16.00;99.90
42145;DHT22;27813;43.516;11.890;2024-02-28T09:50:41;16.10;99.90
42145;DHT22;27813;43.516;11.890;2024-02-28T09:54:46;16.20;99.90
42145;DHT22;27813;43.516;11.890;2024-02-28T09:58:53;16.30;99.90
42145;DHT22;27813;43.516;11.890;2024-02-28T10:02:59;16.40;99.90
42145;DHT22;27813;43.516;11.890;2024-02-28T10:07:14;16.50;99.90
42145;DHT22;27813;43.516;11.890;2024-02-28T10:11:23;16.70;99.90
42145;DHT22;27813;43.516;11.890;2024-02-28T10:15:27;16.80;99.90
42145;DHT22;27813;43.516;11.890;2024-02-28T10:19:32;16.80;99.90
42145;DHT22;27813;43.516;11.890;2024-02-28T10:23:37;16.80;99.80
42145;DHT22;27813;43.516;11.890;2024-02-28T10:27:41;16.70;99.70
42145;DHT22;27813;43.516;11.890;2024-02-28T10:31:47;16.50;99.40
42145;DHT22;27813;43.516;11.890;2024-02-28T10:35:51;16.50;99.20
42145;DHT22;27813;43.516;11.890;2024-02-28T10:39:57;16.60;99.30
42145;DHT22;27813;43.516;11.890;2024-02-28T10:44:02;16.60;99.30
42145;DHT22;27813;43.516;11.890;2024-02-28T10:48:09;16.60;99.10
42145;DHT22;27813;43.516;11.890;2024-02-28T10:52:15;16.60;99.10
42145;DHT22;27813;43.516;11.890;2024-02-28T10:56:27;16.80;99.20
42145;DHT22;27813;43.516;11.890;2024-02-28T11:00:34;17.00;99.20
42145;DHT22;27813;43.516;11.890;2024-02-28T11:04:39;17.00;99.00
42145;DHT22;27813;43.516;11.890;2024-02-28T11:08:46;17.00;98.70
42145;DHT22;27813;43.516;11.890;2024-02-28T11:12:56;17.00;98.60
42145;DHT22;27813;43.516;11.890;2024-02-28T11:17:05;17.00;98.40
42145;DHT22;27813;43.516;11.890;2024-02-28T11:21:16;17.00;98.40
42145;DHT22;27813;43.516;11.890;2024-02-28T11:25:22;17.00;98.40
42145;DHT22;27813;43.516;11.890;2024-02-28T11:29:28;17.00;98.30
42145;DHT22;27813;43.516;11.890;2024-02-28T11:33:33;17.00;98.30
42145;DHT22;27813;43.516;11.890;2024-02-28T11:37:38;17.10;98.40
42145;DHT22;27813;43.516;11.890;2024-02-28T11:41:43;17.40;98.60
42145;DHT22;27813;43.516;11.890;2024-02-28T11:45:54;17.50;98.30
42145;DHT22;27813;43.516;11.890;2024-02-28T11:50:02;17.50;97.90
42145;DHT22;27813;43.516;11.890;2024-02-28T11:54:11;17.70;98.00
42145;DHT22;27813;43.516;11.890;2024-02-28T11:58:16;17.70;97.80
42145;DHT22;27813;43.516;11.890;2024-02-28T12:02:23;17.80;97.50
42145;DHT22;27813;43.516;11.890;2024-02-28T12:06:40;17.70;97.10
42145;DHT22;27813;43.516;11.890;2024-02-28T12:10:46;17.60;97.20
42145;DHT22;27813;43.516;11.890;2024-02-28T12:14:51;17.60;97.00
42145;DHT22;27813;43.516;11.890;2024-02-28T12:18:56;17.60;97.10
42145;DHT22;27813;43.516;11.890;2024-02-28T12:23:01;17.70;97.20
42145;DHT22;27813;43.516;11.890;2024-02-28T12:27:05;17.70;97.20
42145;DHT22;27813;43.516;11.890;2024-02-28T12:31:10;17.80;97.10
42145;DHT22;27813;43.516;11.890;2024-02-28T12:35:16;17.90;97.10
42145;DHT22;27813;43.516;11.890;2024-02-28T12:39:20;17.80;96.80
42145;DHT22;27813;43.516;11.890;2024-02-28T12:43:29;17.70;96.50
42145;DHT22;27813;43.516;11.890;2024-02-28T12:47:33;17.80;96.60
42145;DHT22;27813;43.516;11.890;2024-02-28T12:51:42;17.80;96.80
42145;DHT22;27813;43.516;11.890;2024-02-28T12:55:49;17.80;96.80
42145;DHT22;27813;43.516;11.890;2024-02-28T12:59:53;17.90;96.80
42145;DHT22;27813;43.516;11.890;2024-02-28T13:03:58;18.00;96.70
42145;DHT22;27813;43.516;11.890;2024-02-28T13:08:03;18.20;96.60
42145;DHT22;27813;43.516;11.890;2024-02-28T13:12:10;18.30;96.60
42145;DHT22;27813;43.516;11.890;2024-02-28T13:16:17;18.40;96.20
42145;DHT22;27813;43.516;11.890;2024-02-28T13:20:26;18.40;96.20
42145;DHT22;27813;43.516;11.890;2024-02-28T13:24:31;18.20;94.90
42145;DHT22;27813;43.516;11.890;2024-02-28T13:28:36;17.70;94.00
42145;DHT22;27813;43.516;11.890;2024-02-28T13:32:40;17.00;94.00
42145;DHT22;27813;43.516;11.890;2024-02-28T13:36:45;16.50;95.20
42145;DHT22;27813;43.516;11.890;2024-02-28T13:40:51;15.80;94.20
42145;DHT22;27813;43.516;11.890;2024-02-28T13:44:55;15.00;94.10
42145;DHT22;27813;43.516;11.890;2024-02-28T13:49:00;14.40;95.10
42145;DHT22;27813;43.516;11.890;2024-02-28T13:53:04;14.30;96.90
42145;DHT22;27813;43.516;11.890;2024-02-28T13:57:10;14.50;98.00
42145;DHT22;27813;43.516;11.890;2024-02-28T14:01:14;15.00;98.60
42145;DHT22;27813;43.516;11.890;2024-02-28T14:05:19;15.40;98.70
42145;DHT22;27813;43.516;11.890;2024-02-28T14:09:24;15.70;98.60
42145;DHT22;27813;43.516;11.890;2024-02-28T14:13:28;15.90;98.50
42145;DHT22;27813;43.516;11.890;2024-02-28T14:17:33;16.10;97.80
42145;DHT22;27813;43.516;11.890;2024-02-28T14:21:37;16.40;97.60
42145;DHT22;27813;43.516;11.890;2024-02-28T14:25:42;16.60;97.00
42145;DHT22;27813;43.516;11.890;2024-02-28T14:29:47;16.70;96.30
42145;DHT22;27813;43.516;11.890;2024-02-28T14:33:51;16.80;96.20
42145;DHT22;27813;43.516;11.890;2024-02-28T14:37:55;16.60;95.40
42145;DHT22;27813;43.516;11.890;2024-02-28T14:41:59;16.60;95.40
42145;DHT22;27813;43.516;11.890;2024-02-28T14:46:03;16.40;95.30
42145;DHT22;27813;43.516;11.890;2024-02-28T14:50:10;16.30;95.20
42145;DHT22;27813;43.516;11.890;2024-02-28T14:54:15;16.10;95.40
42145;DHT22;27813;43.516;11.890;2024-02-28T14:58:19;16.10;95.40
42145;DHT22;27813;43.516;11.890;2024-02-28T15:02:25;15.90;95.40
42145;DHT22;27813;43.516;11.890;2024-02-28T15:06:30;15.90;95.20
42145;DHT22;27813;43.516;11.890;2024-02-28T15:10:34;15.90;95.50
42145;DHT22;27813;43.516;11.890;2024-02-28T15:14:40;15.90;95.70
42145;DHT22;27813;43.516;11.890;2024-02-28T15:18:45;16.00;95.90
42145;DHT22;27813;43.516;11.890;2024-02-28T15:22:49;16.00;95.90
42145;DHT22;27813;43.516;11.890;2024-02-28T15:26:55;16.00;96.00
42145;DHT22;27813;43.516;11.890;2024-02-28T15:30:59;16.00;95.80
42145;DHT22;27813;43.516;11.890;2024-02-28T15:35:08;15.90;95.70
42145;DHT22;27813;43.516;11.890;2024-02-28T15:39:12;15.80;95.80
42145;DHT22;27813;43.516;11.890;2024-02-28T15:43:19;15.60;96.00
42145;DHT22;27813;43.516;11.890;2024-02-28T15:47:23;15.50;96.20
42145;DHT22;27813;43.516;11.890;2024-02-28T15:51:32;15.40;96.40
42145;DHT22;27813;43.516;11.890;2024-02-28T15:55:37;15.20;96.50
42145;DHT22;27813;43.516;11.890;2024-02-28T15:59:41;15.10;96.60
42145;DHT22;27813;43.516;11.890;2024-02-28T16:03:46;14.90;96.80
42145;DHT22;27813;43.516;11.890;2024-02-28T16:07:51;14.80;96.90
42145;DHT22;27813;43.516;11.890;2024-02-28T16:11:56;14.70;97.10
42145;DHT22;27813;43.516;11.890;2024-02-28T16:16:01;14.60;97.00
42145;DHT22;27813;43.516;11.890;2024-02-28T16:20:06;14.60;97.10
42145;DHT22;27813;43.516;11.890;2024-02-28T16:24:13;14.50;97.20
42145;DHT22;27813;43.516;11.890;2024-02-28T16:28:17;14.50;97.20
42145;DHT22;27813;43.516;11.890;2024-02-28T16:32:21;14.40;97.10
42145;DHT22;27813;43.516;11.890;2024-02-28T16:36:25;14.40;97.00
42145;DHT22;27813;43.516;11.890;2024-02-28T16:40:29;14.30;96.90
42145;DHT22;27813;43.516;11.890;2024-02-28T16:44:33;14.30;96.80
42145;DHT22;27813;43.516;11.890;2024-02-28T16:48:37;14.20;96.70
42145;DHT22;27813;43.516;11.890;2024-02-28T16:52:42;14.10;96.40
42145;DHT22;27813;43.516;11.890;2024-02-28T16:56:46;14.00;96.40
42145;DHT22;27813;43.516;11.890;2024-02-28T17:00:50;13.90;96.50
42145;DHT22;27813;43.516;11.890;2024-02-28T17:04:55;13.70;96.60
42145;DHT22;27813;43.516;11.890;2024-02-28T17:08:58;13.60;96.60
42145;DHT22;27813;43.516;11.890;2024-02-28T17:13:03;13.50;96.70
42145;DHT22;27813;43.516;11.890;2024-02-28T17:17:08;13.40;96.70
42145;DHT22;27813;43.516;11.890;2024-02-28T17:21:16;13.30;96.70
42145;DHT22;27813;43.516;11.890;2024-02-28T17:25:20;13.20;96.70
42145;DHT22;27813;43.516;11.890;2024-02-28T17:29:24;13.00;96.70
42145;DHT22;27813;43.516;11.890;2024-02-28T17:33:31;13.00;96.70
42145;DHT22;27813;43.516;11.890;2024-02-28T17:37:35;12.90;96.80
42145;DHT22;27813;43.516;11.890;2024-02-28T17:41:40;12.70;96.70
42145;DHT22;27813;43.516;11.890;2024-02-28T17:45:45;12.70;97.00
42145;DHT22;27813;43.516;11.890;2024-02-28T17:49:49;12.70;97.10
42145;DHT22;27813;43.516;11.890;2024-02-28T17:53:53;12.70;97.10
42145;DHT22;27813;43.516;11.890;2024-02-28T17:57:58;12.60;97.10
42145;DHT22;27813;43.516;11.890;2024-02-28T18:02:09;12.60;97.20
42145;DHT22;27813;43.516;11.890;2024-02-28T18:06:14;12.60;97.20
42145;DHT22;27813;43.516;11.890;2024-02-28T18:10:18;12.60;97.20
42145;DHT22;27813;43.516;11.890;2024-02-28T18:14:22;12.60;97.50
42145;DHT22;27813;43.516;11.890;2024-02-28T18:18:27;12.70;97.50
42145;DHT22;27813;43.516;11.890;2024-02-28T18:22:32;12.70;97.40
42145;DHT22;27813;43.516;11.890;2024-02-28T18:26:36;12.70;97.60
42145;DHT22;27813;43.516;11.890;2024-02-28T18:30:40;12.70;97.40
42145;DHT22;27813;43.516;11.890;2024-02-28T18:34:58;12.70;97.20
42145;DHT22;27813;43.516;11.890;2024-02-28T18:39:04;12.70;97.10
42145;DHT22;27813;43.516;11.890;2024-02-28T18:43:10;12.60;97.00
42145;DHT22;27813;43.516;11.890;2024-02-28T18:47:16;12.50;97.10
42145;DHT22;27813;43.516;11.890;2024-02-28T18:51:22;12.50;97.10
42145;DHT22;27813;43.516;11.890;2024-02-28T18:55:27;12.50;97.10
42145;DHT22;27813;43.516;11.890;2024-02-28T18:59:31;12.50;97.10
42145;DHT22;27813;43.516;11.890;2024-02-28T19:03:35;12.40;97.00
42145;DHT22;27813;43.516;11.890;2024-02-28T19:07:40;12.40;97.20
42145;DHT22;27813;43.516;11.890;2024-02-28T19:11:44;12.50;97.40
42145;DHT22;27813;43.516;11.890;2024-02-28T19:15:53;12.60;97.50
42145;DHT22;27813;43.516;11.890;2024-02-28T19:19:58;12.70;97.30
42145;DHT22;27813;43.516;11.890;2024-02-28T19:24:02;12.70;97.10
42145;DHT22;27813;43.516;11.890;2024-02-28T19:28:08;12.70;97.10
42145;DHT22;27813;43.516;11.890;2024-02-28T19:32:15;12.70;96.70
42145;DHT22;27813;43.516;11.890;2024-02-28T19:36:19;12.70;96.80
42145;DHT22;27813;43.516;11.890;2024-02-28T19:40:24;12.70;96.60
42145;DHT22;27813;43.516;11.890;2024-02-28T19:44:30;12.70;96.80
42145;DHT22;27813;43.516;11.890;2024-02-28T19:48:36;12.70;96.70
42145;DHT22;27813;43.516;11.890;2024-02-28T19:52:46;12.70;96.70
42145;DHT22;27813;43.516;11.890;2024-02-28T19:56:51;12.70;96.80
42145;DHT22;27813;43.516;11.890;2024-02-28T20:00:55;12.80;96.80
42145;DHT22;27813;43.516;11.890;2024-02-28T20:04:59;12.90;96.60
42145;DHT22;27813;43.516;11.890;2024-02-28T20:09:03;12.90;96.50
42145;DHT22;27813;43.516;11.890;2024-02-28T20:13:11;13.00;96.40
42145;DHT22;27813;43.516;11.890;2024-02-28T20:17:16;13.00;96.00
42145;DHT22;27813;43.516;11.890;2024-02-28T20:21:21;13.10;95.90
42145;DHT22;27813;43.516;11.890;2024-02-28T20:25:33;13.10;95.80
42145;DHT22;27813;43.516;11.890;2024-02-28T20:29:37;13.20;95.40
42145;DHT22;27813;43.516;11.890;2024-02-28T20:33:41;13.20;94.80
42145;DHT22;27813;43.516;11.890;2024-02-28T20:37:47;13.20;94.50
42145;DHT22;27813;43.516;11.890;2024-02-28T20:41:52;13.20;94.30
42145;DHT22;27813;43.516;11.890;2024-02-28T20:45:57;13.20;94.00
42145;DHT22;27813;43.516;11.890;2024-02-28T20:50:03;13.20;94.10
42145;DHT22;27813;43.516;11.890;2024-02-28T20:54:08;13.20;94.00
42145;DHT22;27813;43.516;11.890;2024-02-28T20:58:17;13.10;94.10
42145;DHT22;27813;43.516;11.890;2024-02-28T21:07:09;13.00;94.20
42145;DHT22;27813;43.516;11.890;2024-02-28T21:11:14;13.10;94.10
42145;DHT22;27813;43.516;11.890;2024-02-28T21:15:18;13.10;94.00
42145;DHT22;27813;43.516;11.890;2024-02-28T21:19:23;13.10;94.10
42145;DHT22;27813;43.516;11.890;2024-02-28T21:23:28;13.10;94.20
42145;DHT22;27813;43.516;11.890;2024-02-28T21:27:32;13.20;94.10
42145;DHT22;27813;43.516;11.890;2024-02-28T21:31:40;13.20;94.10
42145;DHT22;27813;43.516;11.890;2024-02-28T21:35:44;13.20;94.00
42145;DHT22;27813;43.516;11.890;2024-02-28T21:39:50;13.30;93.70
42145;DHT22;27813;43.516;11.890;2024-02-28T21:43:54;13.30;93.90
42145;DHT22;27813;43.516;11.890;2024-02-28T21:48:03;13.30;93.80
42145;DHT22;27813;43.516;11.890;2024-02-28T21:52:08;13.20;93.70
42145;DHT22;27813;43.516;11.890;2024-02-28T21:56:12;13.20;93.80
42145;DHT22;27813;43.516;11.890;2024-02-28T22:00:17;13.20;93.60
42145;DHT22;27813;43.516;11.890;2024-02-28T22:04:22;13.30;93.60
42145;DHT22;27813;43.516;11.890;2024-02-28T22:08:27;13.40;93.40
42145;DHT22;27813;43.516;11.890;2024-02-28T22:12:31;13.40;93.40
42145;DHT22;27813;43.516;11.890;2024-02-28T22:16:38;13.50;93.20
42145;DHT22;27813;43.516;11.890;2024-02-28T22:20:43;13.50;93.10
42145;DHT22;27813;43.516;11.890;2024-02-28T22:24:47;13.60;92.80
42145;DHT22;27813;43.516;11.890;2024-02-28T22:28:51;13.60;92.50
42145;DHT22;27813;43.516;11.890;2024-02-28T22:32:56;13.60;92.40
42145;DHT22;27813;43.516;11.890;2024-02-28T22:37:00;13.70;91.90
42145;DHT22;27813;43.516;11.890;2024-02-28T22:41:04;13.60;92.30
42145;DHT22;27813;43.516;11.890;2024-02-28T22:45:09;13.50;92.60
42145;DHT22;27813;43.516;11.890;2024-02-28T22:49:14;13.50;93.10
42145;DHT22;27813;43.516;11.890;2024-02-28T22:53:18;13.50;92.60
42145;DHT22;27813;43.516;11.890;2024-02-28T22:57:22;13.20;92.30
42145;DHT22;27813;43.516;11.890;2024-02-28T23:01:27;12.90;93.80
42145;DHT22;27813;43.516;11.890;2024-02-28T23:05:32;13.00;94.50
42145;DHT22;27813;43.516;11.890;2024-02-28T23:09:37;13.10;94.30
42145;DHT22;27813;43.516;11.890;2024-02-28T23:13:41;13.30;93.80
42145;DHT22;27813;43.516;11.890;2024-02-28T23:17:45;13.40;93.40
42145;DHT22;27813;43.516;11.890;2024-02-28T23:21:49;13.50;93.10
42145;DHT22;27813;43.516;11.890;2024-02-28T23:25:54;13.50;93.00
42145;DHT22;27813;43.516;11.890;2024-02-28T23:29:58;13.30;92.20
42145;DHT22;27813;43.516;11.890;2024-02-28T23:34:07;13.00;93.40
42145;DHT22;27813;43.516;11.890;2024-02-28T23:38:15;13.00;93.90
42145;DHT22;27813;43.516;11.890;2024-02-28T23:42:20;13.00;93.90
42145;DHT22;27813;43.516;11.890;2024-02-28T23:46:29;13.20;93.70
42145;DHT22;27813;43.516;11.890;2024-02-28T23:50:36;13.30;93.40
42145;DHT22;27813;43.516;11.890;2024-02-28T23:54:41;13.40;93.20
42145;DHT22;27813;43.516;11.890;2024-02-28T23:58:46;13.40;93.20
